createdAt,value
2019-06-10T00:00:31.835Z,25.20
2019-06-10T00:05:35.761Z,25.19
2019-06-10T00:10:41.761Z,25.23
2019-06-10T00:15:44.670Z,25.23
2019-06-10T00:20:48.206Z,25.22
2019-06-10T00:25:51.754Z,25.23
2019-06-10T00:30:55.208Z,25.26
2019-06-10T00:36:02.312Z,25.18
2019-06-10T00:41:07.634Z,25.14
2019-06-10T00:46:13.161Z,25.11
2019-06-10T00:51:16.202Z,25.08
2019-06-10T00:56:21.575Z,25.06
2019-06-10T01:01:24.970Z,25.07
2019-06-10T01:06:28.441Z,25.05
2019-06-10T01:11:32.060Z,25.07
2019-06-10T01:16:35.519Z,25.03
2019-06-10T01:21:41.438Z,25.05
2019-06-10T01:26:44.192Z,25.03
2019-06-10T01:31:47.712Z,25.03
2019-06-10T01:36:51.187Z,25.02
2019-06-10T01:41:55.190Z,25.00
2019-06-10T01:47:00.923Z,24.98
2019-06-10T01:52:04.940Z,25.00
2019-06-10T01:57:10.974Z,24.99
2019-06-10T02:02:23.693Z,24.95
2019-06-10T02:07:26.142Z,24.94
2019-06-10T02:12:31.501Z,24.90
2019-06-10T02:17:35.125Z,24.89
2019-06-10T02:22:40.942Z,24.89
2019-06-10T02:27:43.876Z,24.88
2019-06-10T02:32:47.340Z,24.88
2019-06-10T02:37:53.695Z,24.87
2019-06-10T02:42:58.129Z,24.88
2019-06-10T02:48:04.162Z,24.89
2019-06-10T02:53:07.967Z,24.87
2019-06-10T02:58:13.754Z,24.87
2019-06-10T03:03:22.887Z,24.86
2019-06-10T03:08:26.822Z,24.85
2019-06-10T03:13:28.124Z,24.85
2019-06-10T03:18:32.893Z,24.86
2019-06-10T03:23:36.454Z,24.84
2019-06-10T03:28:39.906Z,24.86
2019-06-10T03:33:47.575Z,24.83
2019-06-10T03:38:48.584Z,24.85
2019-06-10T03:43:53.080Z,24.82
2019-06-10T03:48:56.693Z,24.81
2019-06-10T03:54:02.322Z,24.80
2019-06-10T03:59:05.407Z,24.81
2019-06-10T04:04:08.863Z,24.83
2019-06-10T04:09:12.334Z,24.81
2019-06-10T04:14:15.842Z,24.81
2019-06-10T04:19:19.646Z,24.79
2019-06-10T04:24:25.137Z,24.79
2019-06-10T04:29:29.091Z,24.78
2019-06-10T04:34:33.359Z,24.77
2019-06-10T04:39:36.874Z,24.67
2019-06-10T04:44:42.323Z,24.77
2019-06-10T04:49:45.523Z,24.76
2019-06-10T04:54:48.992Z,24.79
2019-06-10T04:59:53.012Z,24.79
2019-06-10T05:04:56.710Z,24.77
2019-06-10T05:10:00.162Z,24.78
2019-06-10T05:15:04.406Z,24.78
2019-06-10T05:20:08.193Z,24.75
2019-06-10T05:25:12.860Z,24.79
2019-06-10T05:30:16.775Z,24.78
2019-06-10T05:35:21.044Z,24.78
2019-06-10T05:40:26.538Z,24.79
2019-06-10T05:45:32.757Z,24.80
2019-06-10T05:50:36.113Z,24.80
2019-06-10T05:55:42.727Z,24.78
2019-06-10T06:00:46.457Z,24.88
2019-06-10T06:05:52.354Z,24.86
2019-06-10T06:10:55.282Z,24.79
2019-06-10T06:15:58.740Z,24.83
2019-06-10T06:21:20.107Z,24.77
2019-06-10T06:26:07.525Z,24.79
2019-06-10T06:31:12.734Z,24.77
2019-06-10T06:36:16.351Z,24.86
2019-06-10T06:41:22.424Z,24.89
2019-06-10T06:46:25.362Z,24.87
2019-06-10T06:51:38.081Z,24.96
2019-06-10T06:56:37.392Z,24.92
2019-06-10T07:01:41.472Z,24.92
2019-06-10T07:06:45.761Z,24.95
2019-06-10T07:11:49.453Z,24.99
2019-06-10T07:16:53.109Z,24.97
2019-06-10T07:22:08.896Z,24.98
2019-06-10T07:27:02.752Z,24.91
2019-06-10T07:32:06.366Z,24.89
2019-06-10T07:37:10.113Z,24.91
2019-06-10T07:42:13.702Z,24.89
2019-06-10T07:47:17.305Z,24.93
2019-06-10T07:52:23.316Z,25.02
2019-06-10T07:57:25.986Z,25.02
2019-06-10T08:02:32.165Z,25.14
2019-06-10T08:07:35.261Z,25.18
2019-06-10T08:12:39.301Z,25.19
2019-06-10T08:17:44.470Z,25.29
2019-06-10T08:22:52.568Z,25.35
2019-06-10T08:27:53.267Z,25.34
2019-06-10T08:32:56.908Z,25.47
2019-06-10T08:38:02.481Z,25.52
2019-06-10T08:43:06.232Z,25.49
2019-06-10T08:48:09.989Z,25.50
2019-06-10T08:53:17.843Z,25.48
2019-06-10T08:58:18.875Z,25.54
2019-06-10T09:03:23.374Z,25.52
2019-06-10T09:08:27.086Z,25.61
2019-06-10T09:13:31.109Z,25.59
2019-06-10T09:18:35.781Z,25.42
2019-06-10T09:23:41.092Z,25.51
2019-06-10T09:28:48.946Z,25.50
2019-06-10T09:33:53.434Z,25.43
2019-06-10T09:38:55.880Z,25.41
2019-06-10T09:43:59.936Z,25.42
2019-06-10T09:49:07.230Z,25.45
2019-06-10T09:54:12.746Z,25.49
2019-06-10T09:59:16.227Z,25.43
2019-06-10T10:04:19.704Z,25.46
2019-06-10T10:09:24.037Z,25.43
2019-06-10T10:14:27.537Z,25.44
2019-06-10T10:19:31.080Z,25.37
2019-06-10T10:24:34.547Z,25.45
2019-06-10T10:29:38.028Z,25.37
2019-06-10T10:34:43.758Z,25.35
2019-06-10T10:39:46.864Z,25.38
2019-06-10T10:44:52.981Z,25.43
2019-06-10T10:49:57.072Z,25.55
2019-06-10T10:55:06.130Z,25.61
2019-06-10T11:00:13.025Z,25.65
2019-06-10T11:05:34.211Z,25.73
2019-06-10T11:10:38.041Z,25.78
2019-06-10T11:15:43.365Z,25.71
2019-06-10T11:20:47.385Z,25.72
2019-06-10T11:25:53.704Z,25.70
2019-06-10T11:30:58.244Z,25.68
2019-06-10T11:36:02.829Z,25.70
2019-06-10T11:41:06.547Z,25.69
2019-06-10T11:46:10.017Z,25.70
2019-06-10T11:51:13.710Z,25.69
2019-06-10T11:56:18.684Z,25.68
2019-06-10T12:01:22.840Z,25.61
2019-06-10T12:06:26.585Z,25.56
2019-06-10T12:11:34.210Z,25.63
2019-06-10T12:21:43.501Z,25.64
2019-06-10T12:26:47.123Z,25.59
2019-06-10T12:31:51.395Z,25.53
2019-06-10T12:37:01.344Z,25.58
2019-06-10T12:42:04.006Z,25.60
2019-06-10T12:47:08.352Z,25.54
2019-06-10T12:52:12.588Z,25.49
2019-06-10T12:57:16.541Z,25.47
2019-06-10T13:02:24.470Z,25.47
2019-06-10T13:07:25.293Z,25.46
2019-06-10T13:12:28.762Z,25.49
2019-06-10T13:17:32.231Z,25.49
2019-06-10T13:22:35.780Z,25.47
2019-06-10T13:27:39.236Z,25.44
2019-06-10T13:32:43.441Z,25.36
2019-06-10T13:37:46.972Z,25.38
2019-06-10T13:42:52.655Z,25.32
2019-06-10T13:47:55.650Z,25.31
2019-06-10T13:52:59.280Z,25.35
2019-06-10T13:58:06.180Z,25.35
2019-06-10T14:03:11.238Z,25.32
2019-06-10T14:08:15.426Z,25.40
2019-06-10T14:13:18.324Z,25.32
2019-06-10T14:18:23.149Z,25.43
2019-06-10T14:23:26.996Z,25.47
2019-06-10T14:28:39.921Z,25.40
2019-06-10T14:33:35.806Z,25.42
2019-06-10T14:38:39.299Z,25.44
2019-06-10T14:43:42.745Z,25.41
2019-06-10T14:48:46.227Z,25.47
2019-06-10T14:53:50.075Z,25.42
2019-06-10T14:58:53.979Z,25.40
2019-06-10T15:03:57.732Z,25.44
2019-06-10T15:09:01.335Z,25.39
2019-06-10T15:14:05.180Z,25.43
2019-06-10T15:19:16.461Z,25.38
2019-06-10T15:24:14.077Z,25.39
2019-06-10T15:29:18.960Z,25.39
2019-06-10T15:34:24.358Z,25.39
2019-06-10T15:39:27.823Z,25.38
2019-06-10T15:44:48.564Z,25.33
2019-06-10T15:49:37.511Z,25.35
2019-06-10T15:54:42.642Z,25.32
2019-06-10T15:59:46.594Z,25.30
2019-06-10T16:04:52.471Z,25.24
2019-06-10T16:09:55.446Z,25.21
2019-06-10T16:14:59.255Z,25.24
2019-06-10T16:20:03.809Z,25.21
2019-06-10T16:25:07.846Z,25.19
2019-06-10T16:30:13.146Z,25.20
2019-06-10T16:35:18.757Z,25.28
2019-06-10T16:40:25.287Z,25.30
2019-06-10T16:45:31.689Z,25.27
2019-06-10T16:50:34.398Z,25.28
2019-06-10T16:55:39.654Z,25.28
2019-06-10T17:00:43.392Z,25.27
2019-06-10T17:05:46.831Z,25.28
2019-06-10T17:10:52.152Z,25.27
2019-06-10T17:15:55.766Z,25.27
2019-06-10T17:20:59.223Z,25.28
2019-06-10T17:26:02.705Z,25.28
2019-06-10T17:31:06.713Z,25.29
2019-06-10T17:36:12.556Z,25.27
2019-06-10T17:41:15.560Z,25.32
2019-06-10T17:46:19.293Z,25.29
2019-06-10T17:51:25.951Z,25.30
2019-06-10T17:56:29.466Z,25.29
2019-06-10T18:01:35.695Z,25.28
2019-06-10T18:06:39.250Z,25.27
2019-06-10T18:11:43.000Z,25.23
2019-06-10T18:16:46.495Z,25.25
2019-06-10T18:21:52.146Z,25.27
2019-06-10T18:26:56.692Z,25.21
2019-06-10T18:32:00.417Z,25.14
2019-06-10T18:37:04.792Z,25.09
2019-06-10T18:42:08.260Z,24.96
2019-06-10T18:47:13.424Z,25.07
2019-06-10T18:52:17.009Z,25.04
2019-06-10T18:57:22.486Z,24.97
2019-06-10T19:02:26.343Z,24.95
2019-06-10T19:07:31.404Z,24.94
2019-06-10T19:12:36.605Z,24.92
2019-06-10T19:17:42.276Z,25.02
2019-06-10T19:22:45.833Z,25.05
2019-06-10T19:27:49.278Z,25.13
2019-06-10T19:32:52.874Z,25.13
2019-06-10T19:37:56.321Z,25.37
2019-06-10T19:42:59.798Z,25.28
2019-06-10T19:48:03.568Z,25.24
2019-06-10T19:53:07.377Z,25.21
2019-06-10T19:58:13.278Z,25.22
2019-06-10T20:03:16.750Z,25.20
2019-06-10T20:08:22.526Z,25.19
2019-06-10T20:13:25.411Z,25.23
2019-06-10T20:18:33.041Z,25.26
2019-06-10T20:23:35.614Z,25.22
2019-06-10T20:28:39.091Z,25.23
2019-06-10T20:33:43.246Z,25.33
2019-06-10T20:38:48.761Z,25.35
2019-06-10T20:43:55.341Z,25.34
2019-06-10T20:48:57.323Z,25.37
2019-06-10T20:54:02.693Z,25.32
2019-06-10T20:59:06.333Z,25.34
2019-06-10T21:04:12.594Z,25.33
2019-06-10T21:09:17.377Z,25.34
2019-06-10T21:14:22.934Z,25.26
2019-06-10T21:19:26.104Z,25.31
2019-06-10T21:24:29.550Z,25.23
2019-06-10T21:29:33.028Z,25.29
2019-06-10T21:34:36.474Z,25.26
2019-06-10T21:39:39.963Z,25.28
2019-06-10T21:44:43.885Z,25.23
2019-06-10T21:49:48.396Z,25.22
2019-06-10T21:54:52.781Z,25.17
2019-06-10T21:59:56.372Z,25.10
2019-06-10T22:04:59.877Z,25.07
2019-06-10T22:10:04.795Z,25.05
2019-06-10T22:15:12.660Z,25.05
2019-06-10T22:20:16.284Z,25.06
2019-06-10T22:25:22.234Z,25.06
2019-06-10T22:30:25.154Z,25.04
2019-06-10T22:35:28.622Z,25.04
2019-06-10T22:40:32.797Z,25.02
2019-06-10T22:45:36.412Z,24.99
2019-06-10T22:50:39.888Z,24.99
2019-06-10T22:55:43.457Z,24.97
2019-06-10T23:00:48.099Z,24.95
2019-06-10T23:05:52.374Z,24.95
2019-06-10T23:10:57.952Z,24.95
2019-06-10T23:16:02.586Z,24.92
2019-06-10T23:21:06.289Z,24.92
2019-06-10T23:26:10.366Z,24.92
2019-06-10T23:31:13.825Z,24.90
2019-06-10T23:36:17.292Z,24.92
2019-06-10T23:41:22.309Z,24.90
2019-06-10T23:46:26.027Z,24.92
2019-06-10T23:51:29.496Z,24.91
2019-06-10T23:56:33.015Z,24.92
